EGKK Airport Information

Runway Information
Runway 08L Length 8415 ft width 148 ft
Elevation 195 ft Threshold 1053 ft Heading 78
Runway 26R Length 8415 ft Width 148 ft
Elevation 195 ft Threshold 1366 ft Heading 258
Runway 08R Length 10364 ft width 148 ft
Elevation 196 ft Threshold 1288 ft Heading 78
Runway 26L Length 10364 ft Width 148 ft
Elevation 196 ft Threshold 878 ft Heading 258
Airport Frequencies
Type APP Name APP Frequency 126.825 MHZ
Type ATIS Name ATIS Frequency 136.525 MHZ
Type CLD Name CLNC DEL Frequency 121.95 MHZ
Type GND Name GND Frequency 121.8 MHZ
Type TWR Name TWR Frequency 124.225 MHZ
Airport Navaids
Type NDB Name Gatwick Frequency 338 KHZ
Type NDB Name Gatwick Frequency 365 KHZ
Airport Weather Information & NOTAM
ADDS - METARS form results

(0836 UTC 18 July 2018)
 
METAR text: EGKK 180820Z 26005KT 200V320 CAVOK 19/13 Q1019
Conditions at: EGKK (LONDON/GATWICK A, GB) observed 0820 UTC 18 July 2018
Temperature: 19.0°C (66°F)
Dewpoint: 13.0°C (55°F) [RH = 68%]
Pressure (altimeter): 30.09 inches Hg (1019.0 mb)
Winds: from the W (260 degrees) at 6 MPH (5 knots; 2.6 m/s)
Visibility: 6 or more miles (10+ km)
Ceiling: ceiling and visibility are OK
Clouds: unknown
Weather: no significant weather observed at this time

METAR text: EGKK 180750Z 25005KT 210V280 CAVOK 18/14 Q1019
Conditions at: EGKK (LONDON/GATWICK A, GB) observed 0750 UTC 18 July 2018
Temperature: 18.0°C (64°F)
Dewpoint: 14.0°C (57°F) [RH = 77%]
Pressure (altimeter): 30.09 inches Hg (1019.0 mb)
Winds: from the WSW (250 degrees) at 6 MPH (5 knots; 2.6 m/s)
Visibility: 6 or more miles (10+ km)
Ceiling: ceiling and visibility are OK
Clouds: unknown
Weather: no significant weather observed at this time